Time;durP1;ratioP1;P1;durP2;ratioP2;P2;SDS_P1;SDS_P2;PMS_P1;PMS_P2;Temp;Humidity;BMP_temperature;BMP_pressure;BME280_temperature;BME280_humidity;BME280_pressure;Samples;Min_cycle;Max_cycle;Signal;HPM_P1;HPM_P2
2021/07/12 00:00:14;;;;;;;;;;;18.50;96.90;;;;;;5060753;28;19952;-65
2021/07/12 00:02:40;;;;;;;;;;;18.50;96.90;;;;;;5057936;28;20258;-66
2021/07/12 00:05:06;;;;;;;;;;;18.50;96.90;;;;;;5059843;28;19920;-67
2021/07/12 00:07:32;;;;;;;;;;;18.50;96.90;;;;;;5053931;28;20399;-66
2021/07/12 00:09:57;;;;;;;;;;;18.50;96.90;;;;;;5060343;28;20011;-67
2021/07/12 00:12:23;;;;;;;;;;;18.50;96.90;;;;;;5058256;28;20524;-66
2021/07/12 00:14:49;;;;;;;;;;;18.50;96.90;;;;;;5058730;28;19921;-66
2021/07/12 00:17:14;;;;;;;;;;;18.50;97.00;;;;;;5060963;28;20350;-67
2021/07/12 00:19:39;;;;;;;;;;;18.50;97.00;;;;;;5060311;28;20011;-66
2021/07/12 00:22:05;;;;;;;;;;;18.50;96.90;;;;;;5057753;28;19935;-66
2021/07/12 00:24:30;;;;;;;;;;;18.50;97.00;;;;;;5058478;28;20204;-66
2021/07/12 00:26:56;;;;;;;;;;;18.50;96.80;;;;;;5060745;28;20014;-66
2021/07/12 00:29:21;;;;;;;;;;;18.50;96.80;;;;;;5053236;28;19917;-64
2021/07/12 00:31:47;;;;;;;;;;;18.50;96.70;;;;;;5056371;28;19966;-65
2021/07/12 00:34:12;;;;;;;;;;;18.50;96.50;;;;;;5058703;28;20360;-67
2021/07/12 00:36:38;;;;;;;;;;;18.50;96.10;;;;;;5054534;28;19920;-66
2021/07/12 00:39:04;;;;;;;;;;;18.50;95.80;;;;;;5056283;28;19920;-66
2021/07/12 00:41:29;;;;;;;;;;;18.50;95.70;;;;;;5059648;28;19960;-67
2021/07/12 00:43:55;;;;;;;;;;;18.60;95.30;;;;;;5054018;28;19971;-67
2021/07/12 00:46:20;;;;;;;;;;;18.60;94.90;;;;;;5059884;28;19923;-66
2021/07/12 00:48:46;;;;;;;;;;;18.60;94.70;;;;;;5051375;28;19948;-66
2021/07/12 00:51:11;;;;;;;;;;;18.60;94.90;;;;;;5060110;28;20499;-66
2021/07/12 00:53:37;;;;;;;;;;;18.60;94.70;;;;;;5058762;28;19918;-66
2021/07/12 00:56:04;;;;;;;;;;;18.50;94.80;;;;;;5056302;28;20026;-67
2021/07/12 00:58:29;;;;;;;;;;;18.50;94.70;;;;;;5060679;28;19916;-66
2021/07/12 01:00:58;;;;;;;;;;;18.50;94.80;;;;;;5058657;28;19912;-66
2021/07/12 01:03:24;;;;;;;;;;;18.50;95.10;;;;;;5056219;28;19947;-67
2021/07/12 01:05:50;;;;;;;;;;;18.50;94.80;;;;;;5056625;28;19917;-66
2021/07/12 01:08:15;;;;;;;;;;;18.50;94.80;;;;;;5055184;28;20368;-66
2021/07/12 01:10:45;;;;;;;;;;;18.40;94.90;;;;;;5062789;28;19912;-66
2021/07/12 01:13:16;;;;;;;;;;;18.40;94.70;;;;;;5059464;28;19917;-66
2021/07/12 01:15:50;;;;;;;;;;;18.50;94.30;;;;;;5061677;28;19973;-67
2021/07/12 01:18:21;;;;;;;;;;;18.40;94.40;;;;;;5061877;28;19916;-67
2021/07/12 01:21:07;;;;;;;;;;;18.40;94.50;;;;;;5058561;28;19938;-67
2021/07/12 01:23:51;;;;;;;;;;;18.40;94.60;;;;;;5059776;28;19995;-67
2021/07/12 01:26:26;;;;;;;;;;;18.30;94.70;;;;;;5061903;28;19917;-67
2021/07/12 01:28:54;;;;;;;;;;;18.30;94.80;;;;;;5057429;28;19920;-67
2021/07/12 01:31:22;;;;;;;;;;;18.20;95.00;;;;;;5062405;28;19970;-66
2021/07/12 01:33:51;;;;;;;;;;;18.10;94.80;;;;;;5061425;28;20001;-67
2021/07/12 01:36:27;;;;;;;;;;;18.00;95.20;;;;;;5054201;28;19963;-66
2021/07/12 01:38:58;;;;;;;;;;;18.00;95.10;;;;;;5060817;28;20396;-66
2021/07/12 01:41:26;;;;;;;;;;;17.80;95.10;;;;;;5061170;28;19916;-67
2021/07/12 01:44:13;;;;;;;;;;;17.70;95.40;;;;;;5058686;28;20112;-66
2021/07/12 01:46:41;;;;;;;;;;;17.70;95.80;;;;;;5061761;28;19996;-66
2021/07/12 01:49:08;;;;;;;;;;;17.60;96.00;;;;;;5060518;28;19912;-66
2021/07/12 01:51:56;;;;;;;;;;;17.50;96.10;;;;;;5062400;28;19984;-67
2021/07/12 01:54:43;;;;;;;;;;;17.40;96.20;;;;;;5049266;28;19940;-66
2021/07/12 01:57:16;;;;;;;;;;;17.30;96.00;;;;;;4993226;28;19921;-67
2021/07/12 01:59:58;;;;;;;;;;;17.20;96.20;;;;;;5059741;28;19926;-67
2021/07/12 02:02:31;;;;;;;;;;;17.20;96.40;;;;;;5052054;28;19916;-67
2021/07/12 02:04:59;;;;;;;;;;;17.10;96.70;;;;;;5058175;28;19957;-67
2021/07/12 02:07:25;;;;;;;;;;;17.10;96.90;;;;;;5062185;28;20269;-69
2021/07/12 02:09:52;;;;;;;;;;;17.10;96.70;;;;;;5061348;28;20416;-67
2021/07/12 02:12:18;;;;;;;;;;;17.00;96.60;;;;;;5061963;28;19995;-67
2021/07/12 02:14:44;;;;;;;;;;;17.00;96.70;;;;;;5062172;28;19935;-66
2021/07/12 02:17:11;;;;;;;;;;;16.90;96.80;;;;;;5055697;28;19924;-67
2021/07/12 02:19:36;;;;;;;;;;;16.90;96.90;;;;;;5047836;28;20138;-67
2021/07/12 02:22:03;;;;;;;;;;;16.80;97.00;;;;;;5058044;28;20048;-66
2021/07/12 02:24:30;;;;;;;;;;;16.70;97.00;;;;;;5051248;28;19916;-67
2021/07/12 02:26:56;;;;;;;;;;;16.70;97.10;;;;;;5059932;28;19924;-67
2021/07/12 02:29:23;;;;;;;;;;;16.70;97.30;;;;;;5060529;28;19996;-67
2021/07/12 02:31:49;;;;;;;;;;;16.70;97.50;;;;;;5054367;28;20297;-67
2021/07/12 02:34:15;;;;;;;;;;;16.70;97.50;;;;;;5061593;28;20023;-67
2021/07/12 02:36:42;;;;;;;;;;;16.70;97.60;;;;;;5062261;28;19920;-66
2021/07/12 02:39:08;;;;;;;;;;;16.70;97.60;;;;;;5060217;28;19913;-66
2021/07/12 02:41:34;;;;;;;;;;;16.60;97.60;;;;;;5055528;28;20272;-66
2021/07/12 02:44:00;;;;;;;;;;;16.60;97.50;;;;;;5059374;28;20138;-67
2021/07/12 02:46:27;;;;;;;;;;;16.60;97.60;;;;;;5060788;28;19982;-67
2021/07/12 02:48:53;;;;;;;;;;;16.60;97.50;;;;;;5063009;28;20398;-67
2021/07/12 02:51:22;;;;;;;;;;;16.70;97.60;;;;;;5054728;28;19936;-67
2021/07/12 02:53:48;;;;;;;;;;;16.60;97.50;;;;;;5056027;28;20007;-67
2021/07/12 02:56:14;;;;;;;;;;;16.60;97.40;;;;;;5063011;28;19958;-66
2021/07/12 02:58:39;;;;;;;;;;;16.60;97.40;;;;;;5056523;28;20033;-66
2021/07/12 03:01:05;;;;;;;;;;;16.50;97.40;;;;;;5061621;28;20311;-66
2021/07/12 03:03:31;;;;;;;;;;;16.50;97.40;;;;;;5065287;28;20249;-66
2021/07/12 03:06:00;;;;;;;;;;;16.50;97.40;;;;;;5062744;28;19912;-68
2021/07/12 03:08:30;;;;;;;;;;;16.50;97.40;;;;;;5065236;28;20015;-67
2021/07/12 03:10:59;;;;;;;;;;;16.50;97.50;;;;;;5059195;28;20003;-67
2021/07/12 03:13:44;;;;;;;;;;;16.40;97.50;;;;;;5054092;28;19985;-67
2021/07/12 03:16:11;;;;;;;;;;;16.40;97.60;;;;;;5061451;28;19917;-67
2021/07/12 03:18:55;;;;;;;;;;;16.40;97.60;;;;;;5061679;28;19920;-67
2021/07/12 03:21:22;;;;;;;;;;;16.40;97.70;;;;;;5057470;28;20328;-67
2021/07/12 03:23:48;;;;;;;;;;;16.40;97.60;;;;;;5053215;28;19931;-67
2021/07/12 03:26:15;;;;;;;;;;;16.30;97.60;;;;;;5063829;28;19999;-67
2021/07/12 03:28:41;;;;;;;;;;;16.30;97.70;;;;;;5051446;28;19938;-67
2021/07/12 03:31:08;;;;;;;;;;;16.30;97.60;;;;;;5057664;28;19994;-67
2021/07/12 03:33:35;;;;;;;;;;;16.40;97.70;;;;;;5050688;28;19932;-66
2021/07/12 03:36:01;;;;;;;;;;;16.30;97.70;;;;;;5062250;28;19912;-68
2021/07/12 03:38:27;;;;;;;;;;;16.30;97.70;;;;;;5056954;28;19927;-67
2021/07/12 03:40:53;;;;;;;;;;;16.30;97.70;;;;;;5061999;28;19939;-67
2021/07/12 03:43:18;;;;;;;;;;;16.30;97.70;;;;;;5057357;28;20223;-67
2021/07/12 03:45:51;;;;;;;;;;;16.40;97.70;;;;;;5037948;28;19955;-66
2021/07/12 03:48:16;;;;;;;;;;;16.30;97.70;;;;;;5062976;28;20361;-67
2021/07/12 03:50:42;;;;;;;;;;;16.30;97.70;;;;;;5061803;28;20126;-67
2021/07/12 03:53:07;;;;;;;;;;;16.40;97.80;;;;;;5054315;28;19916;-67
2021/07/12 03:55:33;;;;;;;;;;;16.40;97.80;;;;;;5055039;28;19936;-67
2021/07/12 03:57:59;;;;;;;;;;;16.40;97.70;;;;;;5059931;28;20041;-67
2021/07/12 04:00:27;;;;;;;;;;;16.40;97.70;;;;;;5063478;28;19912;-67
2021/07/12 04:02:52;;;;;;;;;;;16.50;97.60;;;;;;5055029;28;19917;-67
2021/07/12 04:05:20;;;;;;;;;;;16.40;97.60;;;;;;5058462;28;20030;-68
2021/07/12 04:07:46;;;;;;;;;;;16.50;97.60;;;;;;5060558;28;19974;-67
2021/07/12 04:10:13;;;;;;;;;;;16.50;97.60;;;;;;5056960;28;20361;-68
2021/07/12 04:12:40;;;;;;;;;;;16.50;97.60;;;;;;5062510;28;20015;-67
2021/07/12 04:15:06;;;;;;;;;;;16.50;97.60;;;;;;5057432;28;20315;-67
2021/07/12 04:17:32;;;;;;;;;;;16.50;97.60;;;;;;5056798;28;20003;-67
2021/07/12 04:19:57;;;;;;;;;;;16.50;97.60;;;;;;5055446;28;20300;-65
2021/07/12 04:22:24;;;;;;;;;;;16.60;97.60;;;;;;5054269;28;19952;-66
2021/07/12 04:24:50;;;;;;;;;;;16.60;97.60;;;;;;5050469;28;19928;-68
2021/07/12 04:27:15;;;;;;;;;;;16.60;97.50;;;;;;5063696;28;19913;-67
2021/07/12 04:29:41;;;;;;;;;;;16.60;97.50;;;;;;5062140;28;19985;-67
2021/07/12 04:32:07;;;;;;;;;;;16.70;97.50;;;;;;5062911;28;20057;-66
2021/07/12 04:34:32;;;;;;;;;;;16.70;97.40;;;;;;5063916;28;19913;-68
2021/07/12 04:36:58;;;;;;;;;;;16.80;97.40;;;;;;5062916;28;20380;-67
2021/07/12 04:39:23;;;;;;;;;;;16.80;97.40;;;;;;5056913;28;20277;-67
2021/07/12 04:41:49;;;;;;;;;;;16.80;97.40;;;;;;5059747;28;19973;-68
2021/07/12 04:44:14;;;;;;;;;;;16.90;97.40;;;;;;5057957;28;19913;-67
2021/07/12 04:46:40;;;;;;;;;;;16.90;97.40;;;;;;5054448;28;20159;-67
2021/07/12 04:49:06;;;;;;;;;;;17.00;97.40;;;;;;5060811;28;19917;-66
2021/07/12 04:51:31;;;;;;;;;;;17.00;97.30;;;;;;5054710;28;19928;-68
2021/07/12 04:53:57;;;;;;;;;;;17.10;97.20;;;;;;5052734;28;20385;-67
2021/07/12 04:56:23;;;;;;;;;;;17.20;96.60;;;;;;5054488;28;19987;-68
2021/07/12 04:58:51;;;;;;;;;;;17.20;96.50;;;;;;5053687;28;20300;-68
2021/07/12 05:01:17;;;;;;;;;;;17.30;96.20;;;;;;5057930;28;19919;-67
2021/07/12 05:03:43;;;;;;;;;;;17.40;96.10;;;;;;5054905;28;20288;-67
2021/07/12 05:06:09;;;;;;;;;;;17.50;95.80;;;;;;5063669;28;19916;-67
2021/07/12 05:08:34;;;;;;;;;;;17.50;95.60;;;;;;5058069;28;19916;-68
2021/07/12 05:11:00;;;;;;;;;;;17.60;94.90;;;;;;5049879;28;19999;-67
2021/07/12 05:13:26;;;;;;;;;;;17.70;94.20;;;;;;5057196;28;20272;-67
2021/07/12 05:15:51;;;;;;;;;;;17.80;93.30;;;;;;5062841;28;20288;-67
2021/07/12 05:18:17;;;;;;;;;;;17.90;93.90;;;;;;5061388;28;19927;-67
2021/07/12 05:20:42;;;;;;;;;;;18.00;93.00;;;;;;5054215;28;19912;-65
2021/07/12 05:23:08;;;;;;;;;;;18.00;93.50;;;;;;5059204;28;19920;-68
2021/07/12 05:25:33;;;;;;;;;;;18.00;93.30;;;;;;5048019;28;19912;-67
2021/07/12 05:27:59;;;;;;;;;;;18.00;93.30;;;;;;5057058;28;19947;-67
2021/07/12 05:30:24;;;;;;;;;;;18.20;92.40;;;;;;5062199;28;19928;-67
2021/07/12 05:32:50;;;;;;;;;;;18.20;92.80;;;;;;5060997;28;19978;-67
2021/07/12 05:35:15;;;;;;;;;;;18.30;93.10;;;;;;5061672;28;20387;-67
2021/07/12 05:37:41;;;;;;;;;;;18.30;92.50;;;;;;5060903;28;20003;-67
2021/07/12 05:40:07;;;;;;;;;;;18.40;92.60;;;;;;5060456;28;20353;-68
2021/07/12 05:42:33;;;;;;;;;;;18.50;92.30;;;;;;5053544;28;20073;-67
2021/07/12 05:44:59;;;;;;;;;;;18.50;92.60;;;;;;5051068;28;19916;-67
2021/07/12 05:47:24;;;;;;;;;;;18.60;92.20;;;;;;5058481;28;20272;-68
2021/07/12 05:49:50;;;;;;;;;;;18.60;92.00;;;;;;5044903;28;19974;-68
2021/07/12 05:52:15;;;;;;;;;;;18.70;91.10;;;;;;5058653;28;20337;-68
2021/07/12 05:54:41;;;;;;;;;;;18.70;91.40;;;;;;5054350;28;19927;-68
2021/07/12 05:57:06;;;;;;;;;;;18.80;91.60;;;;;;5059580;28;20257;-68
2021/07/12 05:59:32;;;;;;;;;;;19.00;91.60;;;;;;5062669;28;19947;-67
2021/07/12 06:01:57;;;;;;;;;;;19.00;90.90;;;;;;5061831;28;19931;-69
2021/07/12 06:04:23;;;;;;;;;;;19.00;89.90;;;;;;5062908;28;19920;-68
2021/07/12 06:06:48;;;;;;;;;;;19.10;90.50;;;;;;5061342;28;20529;-68
2021/07/12 06:09:14;;;;;;;;;;;19.20;89.80;;;;;;5056047;28;19923;-68
2021/07/12 06:11:40;;;;;;;;;;;19.30;90.50;;;;;;5051702;28;19936;-68
2021/07/12 06:14:05;;;;;;;;;;;19.30;89.40;;;;;;5057648;28;20011;-68
2021/07/12 06:16:31;;;;;;;;;;;19.40;89.40;;;;;;5051495;28;19976;-69
2021/07/12 06:18:56;;;;;;;;;;;19.50;90.90;;;;;;5057883;28;19927;-68
2021/07/12 06:21:23;;;;;;;;;;;19.50;89.20;;;;;;5057362;28;20288;-68
2021/07/12 06:23:49;;;;;;;;;;;19.70;89.80;;;;;;5057767;28;20289;-69
2021/07/12 06:26:14;;;;;;;;;;;19.80;88.30;;;;;;5065743;28;19931;-67
2021/07/12 06:28:40;;;;;;;;;;;20.00;87.60;;;;;;5059389;28;20046;-68
2021/07/12 06:31:05;;;;;;;;;;;20.00;87.50;;;;;;5052844;28;19913;-68
2021/07/12 06:33:30;;;;;;;;;;;20.20;88.10;;;;;;5060143;28;20349;-68
2021/07/12 06:35:56;;;;;;;;;;;20.20;86.40;;;;;;5056466;28;19920;-68
2021/07/12 06:38:22;;;;;;;;;;;20.30;87.10;;;;;;5064457;28;19917;-69
2021/07/12 06:40:48;;;;;;;;;;;20.50;87.10;;;;;;5059171;28;19947;-67
2021/07/12 06:43:13;;;;;;;;;;;20.50;86.60;;;;;;5059031;28;19991;-68
2021/07/12 06:45:39;;;;;;;;;;;20.60;85.20;;;;;;5055934;28;20383;-69
2021/07/12 06:48:05;;;;;;;;;;;20.80;85.10;;;;;;5064227;28;20280;-69
2021/07/12 06:50:31;;;;;;;;;;;21.00;86.00;;;;;;5062492;28;20047;-68
2021/07/12 06:52:56;;;;;;;;;;;21.00;84.80;;;;;;5063808;28;20378;-68
2021/07/12 06:55:22;;;;;;;;;;;21.00;84.10;;;;;;5063446;28;20000;-69
2021/07/12 06:57:47;;;;;;;;;;;21.30;85.80;;;;;;5059641;28;20317;-69
2021/07/12 07:00:14;;;;;;;;;;;21.20;84.00;;;;;;5064798;28;19973;-69
2021/07/12 07:02:40;;;;;;;;;;;21.30;84.20;;;;;;5063326;28;19935;-70
2021/07/12 07:05:06;;;;;;;;;;;21.50;82.20;;;;;;5057889;28;19921;-69
2021/07/12 07:07:32;;;;;;;;;;;21.50;84.60;;;;;;5055153;28;20069;-69
2021/07/12 07:09:57;;;;;;;;;;;21.70;83.90;;;;;;5054244;28;19916;-69
2021/07/12 07:12:23;;;;;;;;;;;21.90;84.00;;;;;;5062686;28;19913;-69
2021/07/12 07:14:48;;;;;;;;;;;22.00;82.30;;;;;;5059197;28;20278;-69
2021/07/12 07:17:14;;;;;;;;;;;22.10;85.00;;;;;;5033965;28;20373;-69
2021/07/12 07:19:39;;;;;;;;;;;22.30;84.70;;;;;;5044864;28;20058;-70
2021/07/12 07:22:05;;;;;;;;;;;22.40;83.40;;;;;;5039720;28;19924;-69
2021/07/12 07:24:30;;;;;;;;;;;22.40;82.80;;;;;;5042092;28;19995;-69
2021/07/12 07:26:56;;;;;;;;;;;22.60;82.90;;;;;;5035798;28;19947;-68
2021/07/12 07:29:21;;;;;;;;;;;22.50;79.10;;;;;;5039259;28;20341;-70
2021/07/12 07:31:47;;;;;;;;;;;22.60;80.80;;;;;;5040036;28;20037;-69
2021/07/12 07:34:14;;;;;;;;;;;22.90;80.80;;;;;;5040008;28;19921;-69
2021/07/12 07:36:40;;;;;;;;;;;22.90;77.20;;;;;;5042788;28;19927;-70
2021/07/12 07:39:06;;;;;;;;;;;23.10;78.40;;;;;;5042537;28;19916;-69
2021/07/12 07:41:33;;;;;;;;;;;23.20;77.90;;;;;;5051381;28;20651;-69
2021/07/12 07:43:59;;;;;;;;;;;23.40;77.10;;;;;;5038763;28;19920;-69
2021/07/12 07:46:24;;;;;;;;;;;23.40;76.90;;;;;;5040738;28;20021;-69
2021/07/12 07:48:50;;;;;;;;;;;23.50;77.90;;;;;;5042408;28;19974;-69
2021/07/12 07:51:16;;;;;;;;;;;23.50;75.10;;;;;;5039334;28;19917;-70
2021/07/12 07:53:41;;;;;;;;;;;23.70;74.80;;;;;;5040669;28;20502;-70
2021/07/12 07:56:07;;;;;;;;;;;23.80;75.20;;;;;;5034497;28;20324;-70
2021/07/12 07:58:33;;;;;;;;;;;24.00;76.10;;;;;;5043577;28;19927;-69
2021/07/12 08:00:59;;;;;;;;;;;24.00;73.50;;;;;;5043115;28;19921;-70
2021/07/12 08:03:25;;;;;;;;;;;24.10;73.90;;;;;;5049388;28;19989;-69
2021/07/12 08:05:50;;;;;;;;;;;24.30;75.50;;;;;;5043911;28;19909;-69
2021/07/12 08:08:16;;;;;;;;;;;24.60;74.90;;;;;;5046506;28;19912;-70
2021/07/12 08:10:41;;;;;;;;;;;24.40;71.80;;;;;;5042623;28;20012;-69
2021/07/12 08:13:09;;;;;;;;;;;24.50;73.00;;;;;;5041493;28;19966;-69
2021/07/12 08:15:35;;;;;;;;;;;24.50;69.80;;;;;;5042366;28;19913;-69
2021/07/12 08:18:01;;;;;;;;;;;24.70;74.50;;;;;;5044440;28;20337;-69
2021/07/12 08:20:26;;;;;;;;;;;24.60;68.70;;;;;;5044312;28;19975;-70
2021/07/12 08:22:52;;;;;;;;;;;25.00;72.00;;;;;;5039769;28;20254;-69
2021/07/12 08:25:18;;;;;;;;;;;25.20;67.70;;;;;;5042264;28;20022;-70
2021/07/12 08:27:44;;;;;;;;;;;25.40;70.30;;;;;;5034335;28;19968;-69
2021/07/12 08:30:12;;;;;;;;;;;25.50;66.90;;;;;;5042378;28;19978;-69
2021/07/12 08:32:38;;;;;;;;;;;25.50;68.50;;;;;;5043455;28;20439;-68
2021/07/12 08:35:04;;;;;;;;;;;25.60;66.40;;;;;;5040030;28;19913;-69
2021/07/12 08:37:30;;;;;;;;;;;25.50;68.20;;;;;;5039222;28;19943;-70
2021/07/12 08:39:55;;;;;;;;;;;25.40;68.50;;;;;;5038518;28;19912;-70
2021/07/12 08:42:21;;;;;;;;;;;25.50;68.10;;;;;;5039286;28;19939;-70
2021/07/12 08:44:46;;;;;;;;;;;25.60;68.10;;;;;;5035336;28;19913;-69
2021/07/12 08:47:12;;;;;;;;;;;26.00;67.90;;;;;;5038540;28;19912;-68
2021/07/12 08:49:38;;;;;;;;;;;26.00;64.50;;;;;;5038104;28;19928;-70
2021/07/12 08:52:04;;;;;;;;;;;26.10;66.60;;;;;;5040977;28;19942;-69
2021/07/12 08:54:29;;;;;;;;;;;25.80;65.60;;;;;;5032773;28;19975;-69
2021/07/12 08:56:55;;;;;;;;;;;25.50;67.20;;;;;;5038773;28;19959;-69
2021/07/12 08:59:25;;;;;;;;;;;24.90;68.10;;;;;;5037734;28;19913;-68
2021/07/12 09:02:20;;;;;;;;;;;25.00;70.40;;;;;;5035982;28;19944;-67
2021/07/12 09:04:49;;;;;;;;;;;25.10;68.30;;;;;;5027115;28;20409;-69
2021/07/12 09:07:25;;;;;;;;;;;25.20;67.50;;;;;;5036172;28;20492;-68
2021/07/12 09:09:57;;;;;;;;;;;25.40;69.20;;;;;;5041766;28;19913;-69
2021/07/12 09:12:23;;;;;;;;;;;25.40;68.90;;;;;;5034464;28;19944;-70
2021/07/12 09:15:08;;;;;;;;;;;25.80;65.90;;;;;;5035898;28;20001;-69
2021/07/12 09:17:36;;;;;;;;;;;25.80;67.40;;;;;;5039104;28;19920;-70
2021/07/12 09:20:04;;;;;;;;;;;26.20;67.60;;;;;;5037514;28;20160;-69
2021/07/12 09:22:33;;;;;;;;;;;25.80;65.20;;;;;;5035154;28;20055;-68
2021/07/12 09:25:00;;;;;;;;;;;25.90;64.00;;;;;;5035691;28;19921;-70
2021/07/12 09:27:27;;;;;;;;;;;26.20;65.80;;;;;;5040221;28;19940;-69
2021/07/12 09:30:00;;;;;;;;;;;26.40;63.30;;;;;;5038257;28;19971;-68
2021/07/12 09:32:27;;;;;;;;;;;26.10;63.30;;;;;;5036566;28;20000;-68
2021/07/12 09:34:56;;;;;;;;;;;26.00;66.60;;;;;;5034577;28;19925;-69
2021/07/12 09:37:22;;;;;;;;;;;25.90;67.40;;;;;;5035869;28;19971;-68
2021/07/12 09:39:48;;;;;;;;;;;26.20;66.80;;;;;;5038609;28;19948;-69
2021/07/12 09:42:16;;;;;;;;;;;26.00;67.90;;;;;;5038167;28;19986;-69
2021/07/12 09:44:51;;;;;;;;;;;25.90;66.70;;;;;;5039796;28;19967;-69
2021/07/12 09:47:19;;;;;;;;;;;25.80;65.70;;;;;;5034167;28;19913;-70
2021/07/12 09:49:45;;;;;;;;;;;25.80;65.50;;;;;;5040089;28;19963;-69
2021/07/12 09:52:12;;;;;;;;;;;25.80;66.80;;;;;;5040137;28;20003;-68
2021/07/12 09:54:39;;;;;;;;;;;25.90;66.40;;;;;;5035874;28;20330;-69
2021/07/12 09:57:08;;;;;;;;;;;26.20;68.20;;;;;;5040571;28;19917;-68
2021/07/12 09:59:34;;;;;;;;;;;26.60;68.20;;;;;;5042872;28;19913;-69
2021/07/12 10:02:00;;;;;;;;;;;26.90;68.00;;;;;;5042714;28;20281;-69
2021/07/12 10:04:26;;;;;;;;;;;26.40;65.10;;;;;;5045720;28;20326;-68
2021/07/12 10:06:52;;;;;;;;;;;26.50;67.20;;;;;;5044714;28;19913;-69
2021/07/12 10:09:22;;;;;;;;;;;26.90;65.30;;;;;;5040810;28;19916;-67
2021/07/12 10:11:52;;;;;;;;;;;27.00;64.10;;;;;;5042591;28;19920;-69
2021/07/12 10:14:18;;;;;;;;;;;27.50;66.80;;;;;;5042508;28;20003;-69
2021/07/12 10:16:44;;;;;;;;;;;27.60;63.40;;;;;;5038331;28;19916;-68
2021/07/12 10:19:09;;;;;;;;;;;27.70;59.50;;;;;;5042984;28;19912;-68
2021/07/12 10:21:36;;;;;;;;;;;27.50;63.70;;;;;;5042001;28;20406;-69
2021/07/12 10:24:02;;;;;;;;;;;27.90;59.10;;;;;;5041547;28;19951;-69
2021/07/12 10:26:43;;;;;;;;;;;28.20;58.50;;;;;;5037926;28;19964;-68
2021/07/12 10:29:13;;;;;;;;;;;27.70;58.60;;;;;;5041914;28;20239;-69
2021/07/12 10:31:57;;;;;;;;;;;27.90;58.50;;;;;;5038429;28;20242;-68
2021/07/12 10:34:24;;;;;;;;;;;28.10;56.20;;;;;;5037905;28;19912;-69
2021/07/12 10:36:56;;;;;;;;;;;27.90;58.10;;;;;;5045012;28;20063;-70
2021/07/12 10:39:22;;;;;;;;;;;27.50;57.50;;;;;;5041940;28;19960;-69
2021/07/12 10:41:48;;;;;;;;;;;27.90;57.70;;;;;;5044395;28;20405;-69
2021/07/12 10:44:14;;;;;;;;;;;28.20;55.30;;;;;;5046658;28;19927;-69
2021/07/12 10:46:39;;;;;;;;;;;28.70;58.20;;;;;;5044193;28;20015;-71
2021/07/12 10:49:25;;;;;;;;;;;28.70;55.00;;;;;;5026133;28;19920;-69
2021/07/12 10:51:50;;;;;;;;;;;28.50;56.50;;;;;;5039058;28;19959;-69
2021/07/12 10:54:16;;;;;;;;;;;28.40;52.90;;;;;;5042316;28;19959;-70
2021/07/12 10:57:00;;;;;;;;;;;29.20;55.80;;;;;;5041234;28;19959;-69
2021/07/12 10:59:25;;;;;;;;;;;29.00;51.60;;;;;;5039555;28;19921;-69
2021/07/12 11:01:51;;;;;;;;;;;29.40;53.90;;;;;;5038905;28;19913;-69
2021/07/12 11:04:35;;;;;;;;;;;28.90;52.20;;;;;;5034272;28;19913;-68
2021/07/12 11:07:08;;;;;;;;;;;29.10;53.40;;;;;;5043813;28;19931;-69
2021/07/12 11:09:52;;;;;;;;;;;28.70;53.70;;;;;;5043071;28;19984;-70
2021/07/12 11:12:41;;;;;;;;;;;28.30;55.30;;;;;;5043082;28;19985;-69
2021/07/12 11:15:12;;;;;;;;;;;27.90;58.20;;;;;;5037893;28;20611;-68
2021/07/12 11:17:56;;;;;;;;;;;27.80;55.60;;;;;;5037102;28;19920;-69
2021/07/12 11:20:39;;;;;;;;;;;28.30;57.60;;;;;;5045209;28;19966;-70
2021/07/12 11:23:04;;;;;;;;;;;28.00;57.90;;;;;;5031645;28;20284;-68
2021/07/12 11:25:40;;;;;;;;;;;28.30;58.10;;;;;;5037825;28;19924;-70
2021/07/12 11:28:09;;;;;;;;;;;28.90;53.10;;;;;;5042602;28;19988;-68
2021/07/12 11:30:35;;;;;;;;;;;29.20;51.70;;;;;;5043371;28;19913;-68
2021/07/12 11:33:00;;;;;;;;;;;29.00;52.40;;;;;;5044500;28;19917;-68
2021/07/12 11:35:26;;;;;;;;;;;29.40;53.50;;;;;;5037262;28;19920;-68
2021/07/12 11:37:56;;;;;;;;;;;29.80;55.40;;;;;;5039781;28;19994;-69
2021/07/12 11:40:22;;;;;;;;;;;30.20;50.80;;;;;;5044025;28;19936;-69
2021/07/12 11:42:48;;;;;;;;;;;30.30;49.20;;;;;;5039840;28;19916;-68
2021/07/12 11:45:18;;;;;;;;;;;29.50;50.40;;;;;;5043394;28;19961;-69
2021/07/12 11:47:45;;;;;;;;;;;29.30;50.10;;;;;;5044289;28;20291;-68
2021/07/12 11:50:14;;;;;;;;;;;29.00;50.90;;;;;;5039360;28;19959;-69
2021/07/12 11:52:42;;;;;;;;;;;29.10;49.90;;;;;;5043728;28;19935;-69
2021/07/12 11:55:08;;;;;;;;;;;29.50;55.30;;;;;;5035479;28;19928;-69
2021/07/12 11:57:34;;;;;;;;;;;29.20;55.10;;;;;;5039805;28;19920;-68
2021/07/12 12:00:00;;;;;;;;;;;29.70;56.10;;;;;;5038979;28;19913;-68
2021/07/12 12:02:25;;;;;;;;;;;30.00;51.50;;;;;;5023586;28;19928;-69
2021/07/12 12:04:52;;;;;;;;;;;28.90;51.10;;;;;;5035549;28;19925;-70
2021/07/12 12:07:20;;;;;;;;;;;29.00;53.40;;;;;;5041623;28;19977;-69
2021/07/12 12:09:49;;;;;;;;;;;28.80;54.70;;;;;;5038021;28;19917;-68
2021/07/12 12:12:19;;;;;;;;;;;29.20;55.60;;;;;;5038479;28;20359;-68
2021/07/12 12:14:45;;;;;;;;;;;28.90;51.90;;;;;;5034822;28;19935;-68
2021/07/12 12:17:12;;;;;;;;;;;28.90;54.10;;;;;;5034753;28;20327;-68
2021/07/12 12:19:37;;;;;;;;;;;27.90;54.30;;;;;;5038204;28;19909;-68
2021/07/12 12:22:03;;;;;;;;;;;27.80;54.70;;;;;;5040364;28;20112;-68
2021/07/12 12:24:28;;;;;;;;;;;28.00;57.50;;;;;;5035179;28;20229;-68
2021/07/12 12:26:54;;;;;;;;;;;27.40;55.50;;;;;;5037164;28;20077;-68
2021/07/12 12:29:21;;;;;;;;;;;27.20;57.10;;;;;;5040309;28;19944;-69
2021/07/12 12:31:46;;;;;;;;;;;27.20;55.70;;;;;;5036471;28;20435;-69
2021/07/12 12:34:13;;;;;;;;;;;27.40;55.00;;;;;;5038250;28;20341;-68
2021/07/12 12:36:42;;;;;;;;;;;27.50;57.50;;;;;;5040786;28;20292;-69
2021/07/12 12:39:14;;;;;;;;;;;27.70;55.70;;;;;;5037715;28;20018;-68
2021/07/12 12:41:47;;;;;;;;;;;27.80;55.50;;;;;;5038122;28;20349;-67
2021/07/12 12:44:16;;;;;;;;;;;28.20;59.20;;;;;;5035793;28;19987;-67
2021/07/12 12:46:49;;;;;;;;;;;28.50;57.80;;;;;;5033303;28;20604;-68
2021/07/12 12:49:20;;;;;;;;;;;29.10;54.50;;;;;;5037070;28;19948;-67
2021/07/12 12:51:55;;;;;;;;;;;29.30;57.80;;;;;;5038799;28;19916;-69
2021/07/12 12:54:21;;;;;;;;;;;29.10;52.40;;;;;;5038119;28;20451;-68
2021/07/12 12:56:49;;;;;;;;;;;29.10;52.50;;;;;;5038062;28;19971;-68
2021/07/12 12:59:15;;;;;;;;;;;29.00;52.50;;;;;;5033033;28;20384;-66
2021/07/12 13:01:41;;;;;;;;;;;28.90;52.40;;;;;;5036042;28;19985;-68
2021/07/12 13:04:10;;;;;;;;;;;28.60;54.00;;;;;;5037564;28;20352;-67
2021/07/12 13:06:37;;;;;;;;;;;28.50;55.30;;;;;;5036688;28;19925;-69
2021/07/12 13:09:02;;;;;;;;;;;28.20;53.40;;;;;;5034255;28;19929;-67
2021/07/12 13:11:28;;;;;;;;;;;28.20;55.30;;;;;;5031955;28;20396;-67
2021/07/12 13:13:56;;;;;;;;;;;28.10;55.70;;;;;;5033537;28;19921;-68
2021/07/12 13:16:26;;;;;;;;;;;28.00;56.50;;;;;;5032953;28;19912;-67
2021/07/12 13:18:51;;;;;;;;;;;27.80;57.90;;;;;;5036211;28;19974;-67
2021/07/12 13:21:17;;;;;;;;;;;27.90;55.10;;;;;;5034130;28;20013;-68
2021/07/12 13:23:46;;;;;;;;;;;28.30;56.00;;;;;;5036231;28;19966;-66
2021/07/12 13:26:12;;;;;;;;;;;28.40;54.10;;;;;;5035788;28;20005;-68
2021/07/12 13:28:38;;;;;;;;;;;28.40;56.90;;;;;;5036036;28;19916;-67
2021/07/12 13:31:04;;;;;;;;;;;29.20;55.60;;;;;;5035256;28;20086;-67
2021/07/12 13:33:30;;;;;;;;;;;28.90;56.10;;;;;;5034422;28;19919;-68
2021/07/12 13:35:56;;;;;;;;;;;29.20;55.70;;;;;;5030729;28;19921;-69
2021/07/12 13:38:22;;;;;;;;;;;28.40;53.40;;;;;;5038959;28;19917;-68
2021/07/12 13:40:48;;;;;;;;;;;27.90;55.00;;;;;;5034258;28;19928;-67
2021/07/12 13:43:14;;;;;;;;;;;27.60;57.70;;;;;;5038573;28;19935;-68
2021/07/12 13:45:40;;;;;;;;;;;27.40;58.40;;;;;;5039699;28;19913;-67
2021/07/12 13:48:06;;;;;;;;;;;26.90;58.30;;;;;;5034126;28;19948;-66
2021/07/12 13:50:31;;;;;;;;;;;26.40;60.10;;;;;;5030937;28;19952;-70
2021/07/12 13:52:58;;;;;;;;;;;26.30;63.50;;;;;;5035043;28;20179;-67
2021/07/12 13:55:24;;;;;;;;;;;26.00;62.80;;;;;;5029056;28;19955;-69
2021/07/12 13:57:50;;;;;;;;;;;25.80;63.20;;;;;;5032540;28;20082;-67
2021/07/12 14:00:17;;;;;;;;;;;26.00;65.00;;;;;;5033042;28;19924;-68
2021/07/12 14:02:43;;;;;;;;;;;26.00;64.20;;;;;;5032800;28;19939;-67
2021/07/12 14:05:10;;;;;;;;;;;26.00;63.90;;;;;;5039911;28;20023;-67
2021/07/12 14:07:36;;;;;;;;;;;26.30;65.20;;;;;;5033806;28;19975;-67
2021/07/12 14:10:02;;;;;;;;;;;26.70;63.30;;;;;;5037897;28;20019;-67
2021/07/12 14:12:28;;;;;;;;;;;26.80;63.50;;;;;;5034880;28;19930;-67
2021/07/12 14:14:55;;;;;;;;;;;27.20;62.30;;;;;;5036078;28;19921;-68
2021/07/12 14:17:21;;;;;;;;;;;27.30;60.20;;;;;;5035790;28;20004;-68